Time;durP1;ratioP1;P1;durP2;ratioP2;P2;SDS_P1;SDS_P2;PMS_P1;PMS_P2;Temp;Humidity;BMP_temperature;BMP_pressure;BME280_temperature;BME280_humidity;BME280_pressure;Samples;Min_cycle;Max_cycle;Signal;HPM_P1;HPM_P2
2022/09/30 00:01:32;;;;;;;;;;;;;;;14.62;86.61;99592.50;5280304;33;33961;-71
2022/09/30 00:04:34;;;;;;;;;;;;;;;14.56;88.29;99574.41;5286931;33;34780;-71
2022/09/30 00:07:36;;;;;;;;;;;;;;;15.07;84.32;99592.91;5289283;33;33865;-71
2022/09/30 00:10:38;;;;;;;;;;;;;;;15.68;80.21;99595.63;5241280;33;34078;-71
2022/09/30 00:13:40;;;;;;;;;;;;;;;15.66;77.71;99587.81;5297129;33;33246;-71
2022/09/30 00:16:42;;;;;;;;;;;;;;;15.76;78.38;99576.53;5280556;33;44359;-72
2022/09/30 00:19:45;;;;;;;;;;;;;;;14.93;84.47;99561.25;5297877;33;34656;-71
2022/09/30 00:22:47;;;;;;;;;;;;;;;15.31;81.61;99552.41;5280966;33;34257;-71
2022/09/30 00:25:49;;;;;;;;;;;;;;;16.02;78.35;99548.09;5285344;33;33853;-71
2022/09/30 00:28:52;;;;;;;;;;;;;;;15.58;79.76;99545.09;5276010;33;33936;-71
2022/09/30 00:31:54;;;;;;;;;;;;;;;14.82;84.70;99542.66;5280874;33;34973;-72
2022/09/30 00:34:56;;;;;;;;;;;;;;;16.24;77.61;99553.50;5284268;33;33904;-73
2022/09/30 00:37:59;;;;;;;;;;;;;;;16.20;75.33;99554.69;5282313;33;33298;-73
2022/09/30 00:41:01;;;;;;;;;;;;;;;16.10;77.40;99543.06;5282506;33;34360;-71
2022/09/30 00:44:23;;;;;;;;;;;;;;;15.47;78.61;99534.47;5281785;33;34854;-74
2022/09/30 00:47:25;;;;;;;;;;;;;;;15.37;79.42;99547.50;5282358;33;33396;-72
2022/09/30 00:50:41;;;;;;;;;;;;;;;15.06;82.57;99554.13;5297368;33;33410;-70
2022/09/30 00:53:49;;;;;;;;;;;;;;;15.56;80.34;99541.72;5267541;33;42996;-70
2022/09/30 00:57:00;;;;;;;;;;;;;;;15.79;78.69;99521.53;5282341;33;33841;-72
2022/09/30 01:00:03;;;;;;;;;;;;;;;14.58;84.62;99524.88;5254773;33;35658;-71
2022/09/30 01:03:05;;;;;;;;;;;;;;;14.69;84.58;99529.44;5281645;33;34041;-73
2022/09/30 01:06:07;;;;;;;;;;;;;;;14.97;84.26;99525.69;5282280;33;33878;-73
2022/09/30 01:09:09;;;;;;;;;;;;;;;15.31;82.59;99525.91;5264785;33;33719;-73
2022/09/30 01:12:12;;;;;;;;;;;;;;;15.23;84.02;99525.62;5266469;33;34353;-71
2022/09/30 01:15:14;;;;;;;;;;;;;;;15.78;79.48;99530.44;5267218;33;45389;-70
2022/09/30 01:18:31;;;;;;;;;;;;;;;14.88;84.19;99545.72;5282657;33;33233;-72
2022/09/30 01:21:45;;;;;;;;;;;;;;;15.23;81.82;99554.75;5268780;33;34347;-73
2022/09/30 01:24:47;;;;;;;;;;;;;;;15.67;81.33;99547.12;5280064;33;46134;-71
2022/09/30 01:27:48;;;;;;;;;;;;;;;15.31;81.60;99549.75;5293058;33;35105;-71
2022/09/30 01:30:59;;;;;;;;;;;;;;;15.82;79.37;99539.00;5280921;33;34319;-73
2022/09/30 01:34:20;;;;;;;;;;;;;;;14.97;83.71;99546.00;5296611;33;33661;-73
2022/09/30 01:37:24;;;;;;;;;;;;;;;14.91;83.75;99528.78;5282296;33;34662;-74
2022/09/30 01:40:36;;;;;;;;;;;;;;;14.79;86.44;99535.75;5268502;33;34443;-70
2022/09/30 01:43:46;;;;;;;;;;;;;;;15.64;81.57;99544.69;5282572;33;33296;-72
2022/09/30 01:46:56;;;;;;;;;;;;;;;15.88;78.06;99557.94;5280093;33;45028;-73
2022/09/30 01:50:00;;;;;;;;;;;;;;;15.44;80.54;99563.78;5272078;33;33540;-71
2022/09/30 01:53:20;;;;;;;;;;;;;;;15.50;80.79;99558.06;5280692;33;33096;-73
2022/09/30 01:56:34;;;;;;;;;;;;;;;14.91;83.18;99539.34;5279891;33;34077;-71
2022/09/30 01:59:56;;;;;;;;;;;;;;;14.43;87.83;99509.22;5296693;33;34103;-72
2022/09/30 02:03:03;;;;;;;;;;;;;;;15.57;82.07;99510.78;5253025;33;34608;-71
2022/09/30 02:06:09;;;;;;;;;;;;;;;16.33;76.46;99517.47;5280891;33;34406;-70
2022/09/30 02:09:13;;;;;;;;;;;;;;;16.24;76.86;99508.44;5266100;33;44521;-72
2022/09/30 02:12:16;;;;;;;;;;;;;;;15.33;81.38;99526.69;5279589;33;34606;-71
2022/09/30 02:15:21;;;;;;;;;;;;;;;14.95;83.71;99517.03;5299060;33;34020;-73
2022/09/30 02:18:34;;;;;;;;;;;;;;;15.26;84.21;99498.94;5269465;33;33577;-71
2022/09/30 02:21:37;;;;;;;;;;;;;;;15.21;83.46;99501.09;5271135;33;33737;-73
2022/09/30 02:24:39;;;;;;;;;;;;;;;15.95;78.50;99494.72;5256665;33;34375;-71
2022/09/30 02:27:42;;;;;;;;;;;;;;;15.46;80.46;99498.34;5271041;33;33646;-72
2022/09/30 02:30:44;;;;;;;;;;;;;;;15.67;80.37;99507.38;5278215;33;45783;-71
2022/09/30 02:33:48;;;;;;;;;;;;;;;16.38;76.14;99517.97;5269529;33;34376;-71
2022/09/30 02:36:58;;;;;;;;;;;;;;;16.34;76.28;99538.56;5283300;33;34264;-73
2022/09/30 02:40:01;;;;;;;;;;;;;;;16.63;74.45;99554.91;5283497;33;34522;-71
2022/09/30 02:43:03;;;;;;;;;;;;;;;15.74;78.49;99550.16;5297797;33;33796;-72
2022/09/30 02:46:17;;;;;;;;;;;;;;;15.18;84.75;99510.06;5269961;33;33637;-72
2022/09/30 02:49:26;;;;;;;;;;;;;;;14.64;85.63;99510.41;5257735;33;45109;-73
2022/09/30 02:52:28;;;;;;;;;;;;;;;14.87;86.03;99506.97;5284191;33;34091;-70
2022/09/30 02:55:36;;;;;;;;;;;;;;;15.16;85.83;99494.31;5284240;33;34244;-70
2022/09/30 02:58:38;;;;;;;;;;;;;;;14.42;89.76;99505.69;5285209;33;33844;-73
2022/09/30 03:01:40;;;;;;;;;;;;;;;14.05;91.40;99495.00;5281817;33;34335;-71
2022/09/30 03:04:44;;;;;;;;;;;;;;;14.97;88.16;99498.37;5291011;33;44710;-73
2022/09/30 03:07:46;;;;;;;;;;;;;;;14.54;87.60;99491.66;5286396;33;33308;-73
2022/09/30 03:10:49;;;;;;;;;;;;;;;14.76;87.61;99493.66;5250592;33;35635;-72
2022/09/30 03:14:02;;;;;;;;;;;;;;;14.36;89.34;99487.62;5285342;33;33292;-72
2022/09/30 03:17:22;;;;;;;;;;;;;;;14.00;92.68;99478.62;5269305;33;34023;-73
2022/09/30 03:20:23;;;;;;;;;;;;;;;13.98;93.78;99474.41;5280952;33;34268;-73
2022/09/30 03:23:26;;;;;;;;;;;;;;;14.60;91.98;99478.00;5276172;33;36308;-73
2022/09/30 03:26:37;;;;;;;;;;;;;;;15.35;85.26;99483.25;5279387;33;34654;-71
2022/09/30 03:29:45;;;;;;;;;;;;;;;15.25;84.53;99478.72;5297584;33;34022;-71
2022/09/30 03:32:56;;;;;;;;;;;;;;;15.32;84.41;99503.78;5280570;33;46342;-72
2022/09/30 03:35:59;;;;;;;;;;;;;;;16.21;79.14;99504.19;5296905;33;34349;-71
2022/09/30 03:39:16;;;;;;;;;;;;;;;15.61;83.33;99499.84;5283270;33;34596;-72
2022/09/30 03:42:25;;;;;;;;;;;;;;;15.54;82.98;99519.81;5267336;33;46613;-71
2022/09/30 03:45:29;;;;;;;;;;;;;;;16.02;79.52;99517.16;5283951;33;33389;-71
2022/09/30 03:48:32;;;;;;;;;;;;;;;14.60;87.89;99508.91;5268430;33;34429;-73
2022/09/30 03:51:34;;;;;;;;;;;;;;;14.47;89.93;99519.47;5294240;33;33836;-72
2022/09/30 03:54:56;;;;;;;;;;;;;;;14.78;88.75;99506.78;5256834;33;33540;-72
2022/09/30 03:57:58;;;;;;;;;;;;;;;16.08;81.26;99514.03;5269950;33;33960;-73
2022/09/30 04:01:00;;;;;;;;;;;;;;;15.34;84.12;99500.09;5295810;33;33062;-73
2022/09/30 04:04:02;;;;;;;;;;;;;;;15.52;82.16;99503.19;5268304;33;33945;-73
2022/09/30 04:07:04;;;;;;;;;;;;;;;14.97;87.30;99501.88;5295217;33;34211;-74
2022/09/30 04:10:06;;;;;;;;;;;;;;;15.32;86.04;99498.47;5248973;33;34612;-70
2022/09/30 04:13:08;;;;;;;;;;;;;;;15.60;84.22;99494.69;5283526;33;33903;-73
2022/09/30 04:16:10;;;;;;;;;;;;;;;15.89;81.33;99500.47;5281859;33;34033;-73
2022/09/30 04:19:13;;;;;;;;;;;;;;;15.82;83.20;99509.84;5283246;33;44806;-71
2022/09/30 04:22:15;;;;;;;;;;;;;;;15.64;82.76;99512.03;5296012;33;33929;-72
2022/09/30 04:25:17;;;;;;;;;;;;;;;15.71;84.09;99515.94;5278966;33;33637;-73
2022/09/30 04:28:18;;;;;;;;;;;;;;;16.64;78.55;99514.16;5294998;33;33726;-73
2022/09/30 04:31:20;;;;;;;;;;;;;;;16.60;77.90;99520.63;5278972;33;33438;-71
2022/09/30 04:34:22;;;;;;;;;;;;;;;15.57;82.62;99524.03;5297387;33;34509;-71
2022/09/30 04:37:24;;;;;;;;;;;;;;;15.83;83.64;99512.38;5276172;33;34547;-73
2022/09/30 04:40:26;;;;;;;;;;;;;;;15.51;85.35;99513.87;5282347;33;33466;-71
2022/09/30 04:43:28;;;;;;;;;;;;;;;16.02;83.67;99518.94;5297504;33;33401;-74
2022/09/30 04:46:31;;;;;;;;;;;;;;;16.69;78.78;99516.44;5267845;33;33997;-72
2022/09/30 04:49:33;;;;;;;;;;;;;;;15.28;84.38;99531.44;5284870;33;34148;-73
2022/09/30 04:52:35;;;;;;;;;;;;;;;16.59;79.65;99532.22;5280967;33;34430;-73
2022/09/30 04:55:36;;;;;;;;;;;;;;;15.89;79.74;99538.41;5296477;33;34021;-71
2022/09/30 04:58:38;;;;;;;;;;;;;;;15.49;85.19;99539.62;5283294;33;33859;-71
2022/09/30 05:01:42;;;;;;;;;;;;;;;16.38;82.13;99553.28;5279929;33;33293;-71
2022/09/30 05:04:44;;;;;;;;;;;;;;;16.42;80.69;99557.41;5296472;33;44581;-73
2022/09/30 05:07:46;;;;;;;;;;;;;;;17.08;76.92;99557.63;5276214;33;33307;-73
2022/09/30 05:10:56;;;;;;;;;;;;;;;16.14;80.13;99553.34;5252287;33;35666;-71
2022/09/30 05:13:58;;;;;;;;;;;;;;;16.57;80.31;99550.06;5281567;33;33362;-72
2022/09/30 05:17:01;;;;;;;;;;;;;;;16.07;82.00;99552.09;5293444;33;33798;-73
2022/09/30 05:20:03;;;;;;;;;;;;;;;15.61;86.44;99544.88;5283720;33;34271;-74
2022/09/30 05:23:05;;;;;;;;;;;;;;;16.46;82.20;99552.69;5279348;33;34021;-72
2022/09/30 05:26:07;;;;;;;;;;;;;;;16.45;80.57;99551.84;5276408;33;33900;-77
2022/09/30 05:29:13;;;;;;;;;;;;;;;17.06;77.08;99559.53;5275840;33;44997;-72
2022/09/30 05:32:15;;;;;;;;;;;;;;;17.27;76.84;99555.19;5279771;33;33278;-73
2022/09/30 05:35:17;;;;;;;;;;;;;;;17.10;77.72;99554.84;5277559;33;33228;-73
2022/09/30 05:38:19;;;;;;;;;;;;;;;17.01;77.62;99556.41;5288756;33;33273;-73
2022/09/30 05:41:21;;;;;;;;;;;;;;;17.01;78.83;99564.38;5285137;33;33032;-69
2022/09/30 05:44:23;;;;;;;;;;;;;;;17.11;77.09;99559.16;5268411;33;34810;-83
2022/09/30 05:47:26;;;;;;;;;;;;;;;16.06;83.62;99563.66;5299920;33;35685;-75
2022/09/30 05:50:28;;;;;;;;;;;;;;;16.27;82.99;99563.00;5286787;33;33761;-71
2022/09/30 05:53:33;;;;;;;;;;;;;;;17.45;76.47;99559.97;5305427;33;33550;-74
2022/09/30 05:56:37;;;;;;;;;;;;;;;17.13;76.83;99575.81;5273813;33;33305;-77
2022/09/30 05:59:39;;;;;;;;;;;;;;;16.79;79.28;99581.13;5291171;33;34130;-70
2022/09/30 06:02:41;;;;;;;;;;;;;;;16.67;80.24;99571.41;5295053;33;44745;-83
2022/09/30 06:05:44;;;;;;;;;;;;;;;17.05;78.77;99573.78;5278151;33;33418;-69
2022/09/30 06:08:46;;;;;;;;;;;;;;;17.55;76.14;99564.44;5269250;33;31617;-74
2022/09/30 06:11:48;;;;;;;;;;;;;;;17.49;76.08;99572.06;5264864;33;33319;-70
2022/09/30 06:14:50;;;;;;;;;;;;;;;17.79;74.25;99572.25;5295973;33;34775;-80
2022/09/30 06:17:52;;;;;;;;;;;;;;;17.65;75.27;99564.53;5280060;33;33361;-75
2022/09/30 06:20:57;;;;;;;;;;;;;;;17.23;76.22;99574.97;5288695;33;34700;-71
2022/09/30 06:23:59;;;;;;;;;;;;;;;17.64;75.47;99572.59;5300058;33;34749;-69
2022/09/30 06:27:01;;;;;;;;;;;;;;;17.61;74.93;99576.38;5278923;33;33376;-73
2022/09/30 06:30:04;;;;;;;;;;;;;;;16.25;80.95;99592.31;5297950;33;34000;-82
2022/09/30 06:33:06;;;;;;;;;;;;;;;15.57;86.55;99583.13;5286651;33;33335;-78
2022/09/30 06:36:10;;;;;;;;;;;;;;;16.23;83.26;99580.97;5297570;33;33841;-79
2022/09/30 06:39:12;;;;;;;;;;;;;;;15.96;85.62;99568.78;5282112;33;44576;-73
2022/09/30 06:42:15;;;;;;;;;;;;;;;15.88;88.51;99586.22;5287091;33;33183;-73
2022/09/30 06:45:17;;;;;;;;;;;;;;;16.32;85.21;99593.53;5278828;33;34481;-79
2022/09/30 06:48:33;;;;;;;;;;;;;;;17.23;80.83;99590.91;5291128;33;35445;-75
2022/09/30 06:51:39;;;;;;;;;;;;;;;17.10;80.58;99590.19;5301446;33;31756;-71
2022/09/30 06:54:42;;;;;;;;;;;;;;;16.93;80.92;99595.97;5284884;33;45057;-80
2022/09/30 06:57:46;;;;;;;;;;;;;;;17.51;75.60;99594.84;5296694;33;34481;-74
2022/09/30 07:00:58;;;;;;;;;;;;;;;17.31;77.07;99598.25;5284931;33;35529;-77
2022/09/30 07:04:06;;;;;;;;;;;;;;;18.09;73.87;99600.78;5265834;33;33729;-80
2022/09/30 07:07:09;;;;;;;;;;;;;;;17.92;74.31;99606.66;5301131;33;33081;-72
2022/09/30 07:10:11;;;;;;;;;;;;;;;18.28;72.34;99602.75;5262424;33;33061;-73
2022/09/30 07:13:13;;;;;;;;;;;;;;;18.13;72.38;99602.22;5278954;33;44249;-80
2022/09/30 07:16:16;;;;;;;;;;;;;;;17.87;74.37;99614.16;5283050;33;33307;-81
2022/09/30 07:19:21;;;;;;;;;;;;;;;17.87;73.39;99615.00;5284824;33;36407;-72
2022/09/30 07:22:27;;;;;;;;;;;;;;;17.76;74.50;99630.13;5299904;33;33439;-70
2022/09/30 07:25:29;;;;;;;;;;;;;;;17.82;74.08;99625.16;5271725;33;34430;-79
2022/09/30 07:28:32;;;;;;;;;;;;;;;17.67;75.49;99637.00;5300743;33;31586;-70
2022/09/30 07:31:34;;;;;;;;;;;;;;;17.73;74.86;99641.00;5276439;33;33682;-78
2022/09/30 07:34:42;;;;;;;;;;;;;;;17.92;74.17;99635.91;5293832;33;34620;-72
2022/09/30 07:37:44;;;;;;;;;;;;;;;17.99;73.60;99642.41;5271708;33;44820;-75
2022/09/30 07:41:10;;;;;;;;;;;;;;;17.40;76.72;99645.34;5286938;33;33278;-82
2022/09/30 07:44:13;;;;;;;;;;;;;;;17.52;76.43;99648.88;5282520;33;44943;-73
2022/09/30 07:47:15;;;;;;;;;;;;;;;17.36;78.17;99659.00;5275436;33;33261;-73
2022/09/30 07:50:17;;;;;;;;;;;;;;;17.59;77.10;99661.53;5296337;33;33373;-82
2022/09/30 07:53:19;;;;;;;;;;;;;;;17.80;76.30;99664.31;5288374;33;33376;-82
2022/09/30 07:56:22;;;;;;;;;;;;;;;18.18;74.52;99663.00;5290907;33;35715;-84
2022/09/30 07:59:26;;;;;;;;;;;;;;;18.39;71.67;99665.72;5292454;33;33141;-79
2022/09/30 08:02:28;;;;;;;;;;;;;;;18.01;73.03;99666.19;5281804;33;33505;-76
2022/09/30 08:05:30;;;;;;;;;;;;;;;17.62;74.96;99681.69;5300696;33;33216;-78
2022/09/30 08:08:32;;;;;;;;;;;;;;;17.47;76.09;99680.25;5272329;33;33527;-72
2022/09/30 08:11:34;;;;;;;;;;;;;;;17.52;76.33;99675.44;5281557;33;33233;-68
2022/09/30 08:14:36;;;;;;;;;;;;;;;17.36;77.66;99680.25;5285210;33;33117;-66
2022/09/30 08:17:38;;;;;;;;;;;;;;;17.12;80.85;99681.19;5285906;33;33826;-71
2022/09/30 08:20:40;;;;;;;;;;;;;;;17.86;74.89;99689.56;5295704;33;31555;-71
2022/09/30 08:23:44;;;;;;;;;;;;;;;17.22;78.65;99689.28;5289104;33;44662;-73
2022/09/30 08:26:46;;;;;;;;;;;;;;;17.74;76.72;99694.03;5297615;33;33305;-69
2022/09/30 08:29:48;;;;;;;;;;;;;;;17.98;75.29;99698.38;5287366;33;33171;-75
2022/09/30 08:32:57;;;;;;;;;;;;;;;18.02;74.53;99699.78;5297145;33;33335;-73
2022/09/30 08:36:15;;;;;;;;;;;;;;;17.27;77.55;99708.38;5274738;33;33471;-80
2022/09/30 08:39:17;;;;;;;;;;;;;;;16.73;80.57;99722.22;5289321;33;44545;-82
2022/09/30 08:42:37;;;;;;;;;;;;;;;17.07;80.35;99728.50;5299863;33;34636;-73
2022/09/30 08:46:14;;;;;;;;;;;;;;;17.37;78.59;99719.97;5285544;33;46519;-68
2022/09/30 08:49:32;;;;;;;;;;;;;;;17.09;79.37;99725.72;5282433;33;45050;-69
2022/09/30 08:52:35;;;;;;;;;;;;;;;17.26;80.06;99728.78;5295086;33;33027;-67
2022/09/30 08:55:49;;;;;;;;;;;;;;;17.06;79.78;99732.09;5286898;33;43273;-74
2022/09/30 08:58:53;;;;;;;;;;;;;;;17.38;78.63;99742.87;5278063;33;34122;-81
2022/09/30 09:01:58;;;;;;;;;;;;;;;17.17;79.16;99737.44;5285341;33;34568;-76
2022/09/30 09:05:01;;;;;;;;;;;;;;;17.16;79.74;99746.38;5282139;33;33103;-77
2022/09/30 09:08:05;;;;;;;;;;;;;;;17.04;79.22;99736.69;5272187;33;33886;-76
2022/09/30 09:11:35;;;;;;;;;;;;;;;17.12;79.54;99741.41;5269648;33;33186;-75
2022/09/30 09:14:49;;;;;;;;;;;;;;;17.25;78.35;99748.31;5300418;33;33123;-78
2022/09/30 09:17:57;;;;;;;;;;;;;;;17.40;78.37;99751.59;5284698;33;34205;-71
2022/09/30 09:21:25;;;;;;;;;;;;;;;17.68;77.79;99744.97;5267363;33;44812;-71
2022/09/30 09:24:29;;;;;;;;;;;;;;;17.79;78.82;99755.66;5299353;33;33334;-80
2022/09/30 09:27:34;;;;;;;;;;;;;;;18.16;74.59;99757.16;5261160;33;33076;-70
2022/09/30 09:30:40;;;;;;;;;;;;;;;18.20;74.87;99764.78;5290241;33;33214;-76
2022/09/30 09:33:42;;;;;;;;;;;;;;;18.20;73.46;99770.09;5268084;33;47369;-81
2022/09/30 09:37:11;;;;;;;;;;;;;;;18.10;75.50;99766.50;5268614;33;34908;-80
2022/09/30 09:40:15;;;;;;;;;;;;;;;18.63;72.64;99766.63;5271712;33;44836;-72
2022/09/30 09:43:41;;;;;;;;;;;;;;;19.08;70.56;99774.44;5280722;33;34459;-72
2022/09/30 09:46:50;;;;;;;;;;;;;;;19.37;69.89;99770.16;5283855;33;44289;-77
2022/09/30 09:49:54;;;;;;;;;;;;;;;18.37;72.64;99774.91;5285334;33;32916;-72
2022/09/30 09:53:04;;;;;;;;;;;;;;;19.38;69.40;99769.16;5291726;33;34050;-70
2022/09/30 09:56:19;;;;;;;;;;;;;;;19.56;70.48;99773.91;5296341;33;34096;-85
2022/09/30 09:59:21;;;;;;;;;;;;;;;20.13;67.52;99780.50;5272391;33;33341;-81
2022/09/30 10:02:27;;;;;;;;;;;;;;;19.88;68.29;99793.31;5294726;33;33519;-81
2022/09/30 10:05:38;;;;;;;;;;;;;;;18.79;73.48;99791.03;5273640;33;34852;-79
2022/09/30 10:08:53;;;;;;;;;;;;;;;19.36;69.11;99800.44;5277477;33;34442;-72
2022/09/30 10:12:18;;;;;;;;;;;;;;;19.27;70.63;99798.56;5276860;33;34572;-75
2022/09/30 10:15:21;;;;;;;;;;;;;;;19.06;73.22;99800.34;5274889;33;44444;-73
2022/09/30 10:18:27;;;;;;;;;;;;;;;19.22;71.39;99798.09;5284869;33;33539;-68
2022/09/30 10:21:29;;;;;;;;;;;;;;;19.63;68.50;99781.25;5269793;33;33378;-66
2022/09/30 10:24:31;;;;;;;;;;;;;;;19.68;68.36;99788.88;5280221;33;33306;-68
2022/09/30 10:27:34;;;;;;;;;;;;;;;19.04;70.11;99795.16;5289186;33;35070;-82
2022/09/30 10:30:38;;;;;;;;;;;;;;;19.46;69.04;99796.03;5284097;33;33261;-79
2022/09/30 10:33:42;;;;;;;;;;;;;;;19.26;68.77;99806.69;5275682;33;33210;-81
2022/09/30 10:36:44;;;;;;;;;;;;;;;19.32;68.74;99816.81;5285670;33;44682;-77
2022/09/30 10:39:52;;;;;;;;;;;;;;;18.80;70.58;99823.81;5301917;33;34024;-69
2022/09/30 10:42:54;;;;;;;;;;;;;;;19.31;69.74;99826.63;5287684;33;34585;-74
2022/09/30 10:45:58;;;;;;;;;;;;;;;19.49;68.08;99832.22;5293127;33;33847;-70
2022/09/30 10:49:20;;;;;;;;;;;;;;;19.02;71.20;99844.22;5289171;33;44830;-70
2022/09/30 10:52:23;;;;;;;;;;;;;;;19.68;67.74;99845.69;5287948;33;34461;-72
2022/09/30 10:55:32;;;;;;;;;;;;;;;19.77;67.70;99844.06;5290717;33;33833;-71
2022/09/30 10:58:40;;;;;;;;;;;;;;;19.97;67.20;99837.88;5283076;33;34753;-69
2022/09/30 11:01:44;;;;;;;;;;;;;;;20.10;66.28;99848.31;5286210;33;44684;-73
2022/09/30 11:04:50;;;;;;;;;;;;;;;19.23;68.09;99855.72;5296518;33;33001;-74
2022/09/30 11:07:52;;;;;;;;;;;;;;;19.04;71.08;99866.22;5279121;33;33452;-75
2022/09/30 11:10:57;;;;;;;;;;;;;;;20.36;64.76;99859.38;5284520;33;33922;-84
2022/09/30 11:14:12;;;;;;;;;;;;;;;20.78;63.15;99872.56;5287669;33;34761;-72
2022/09/30 11:17:26;;;;;;;;;;;;;;;20.75;62.93;99881.72;5296066;33;44489;-74
2022/09/30 11:20:29;;;;;;;;;;;;;;;20.12;66.48;99893.53;5266601;33;34140;-91
2022/09/30 11:23:40;;;;;;;;;;;;;;;20.43;63.24;99905.06;5288867;33;34339;-77
2022/09/30 11:26:48;;;;;;;;;;;;;;;20.39;63.32;99914.28;5284599;33;47352;-75
2022/09/30 11:30:02;;;;;;;;;;;;;;;19.54;67.12;99917.97;5282933;33;35872;-75
2022/09/30 11:33:05;;;;;;;;;;;;;;;20.48;64.49;99917.06;5283315;33;35293;-76
2022/09/30 11:36:27;;;;;;;;;;;;;;;20.74;63.74;99924.59;5273876;33;33186;-77
2022/09/30 11:39:29;;;;;;;;;;;;;;;21.14;61.46;99924.53;5253375;33;34696;-76
2022/09/30 11:42:34;;;;;;;;;;;;;;;20.82;61.53;99920.25;5300558;33;34241;-74
2022/09/30 11:45:55;;;;;;;;;;;;;;;19.73;66.32;99923.47;5275857;33;34537;-84
2022/09/30 11:49:00;;;;;;;;;;;;;;;20.41;63.72;99926.50;5298137;33;34259;-84
2022/09/30 11:52:05;;;;;;;;;;;;;;;19.26;68.41;99945.22;5280186;33;35411;-86
2022/09/30 11:55:29;;;;;;;;;;;;;;;18.94;69.27;99941.56;5283711;33;33591;-82
2022/09/30 11:58:34;;;;;;;;;;;;;;;20.19;64.84;99948.88;5298800;33;32333;-83
2022/09/30 12:01:44;;;;;;;;;;;;;;;21.25;59.37;99959.16;5270248;33;44357;-75
2022/09/30 12:04:46;;;;;;;;;;;;;;;20.88;59.97;99966.09;5298784;33;33954;-76
2022/09/30 12:07:50;;;;;;;;;;;;;;;19.45;63.83;99977.38;5279503;33;33216;-75
2022/09/30 12:11:12;;;;;;;;;;;;;;;20.43;60.93;99971.78;5254670;33;33738;-75
2022/09/30 12:14:17;;;;;;;;;;;;;;;19.64;62.96;99979.38;5299532;33;46142;-76
2022/09/30 12:17:39;;;;;;;;;;;;;;;20.18;62.08;99978.37;5283947;33;33974;-84
2022/09/30 12:20:42;;;;;;;;;;;;;;;20.59;61.76;99982.00;5291639;33;36448;-83
2022/09/30 12:23:45;;;;;;;;;;;;;;;20.75;61.42;99980.53;5287661;33;33703;-75
2022/09/30 12:26:48;;;;;;;;;;;;;;;20.97;57.89;99982.12;5271099;33;34257;-84
2022/09/30 12:33:17;;;;;;;;;;;;;;;20.82;58.40;99999.53;5270575;33;45679;-75
2022/09/30 12:36:31;;;;;;;;;;;;;;;19.71;60.85;100002.75;5283632;33;34715;-85
2022/09/30 12:39:37;;;;;;;;;;;;;;;19.49;61.03;100014.28;5258142;33;35270;-77
2022/09/30 12:42:48;;;;;;;;;;;;;;;20.60;58.84;100005.88;5283623;33;33255;-77
2022/09/30 12:46:02;;;;;;;;;;;;;;;20.71;57.85;100005.78;5294189;33;45160;-84
2022/09/30 12:49:05;;;;;;;;;;;;;;;21.46;55.89;100014.34;5284956;33;33384;-75
2022/09/30 12:52:11;;;;;;;;;;;;;;;20.72;57.09;100010.16;5284381;33;33253;-84
2022/09/30 12:55:32;;;;;;;;;;;;;;;21.36;55.94;100007.16;5271703;33;44464;-84
2022/09/30 12:58:37;;;;;;;;;;;;;;;21.74;55.34;100018.03;5270064;33;33686;-75
2022/09/30 13:01:40;;;;;;;;;;;;;;;21.28;56.01;100017.69;5284254;33;33649;-76
2022/09/30 13:04:44;;;;;;;;;;;;;;;22.25;53.77;100019.56;5267536;33;44591;-76
2022/09/30 13:08:05;;;;;;;;;;;;;;;25.97;44.20;100026.56;5282566;33;34133;-82
2022/09/30 13:11:18;;;;;;;;;;;;;;;24.99;45.17;100028.09;5247936;33;839818;-75
2022/09/30 13:14:31;;;;;;;;;;;;;;;24.96;45.54;100044.56;5274683;33;44551;-75
2022/09/30 13:17:35;;;;;;;;;;;;;;;27.74;38.96;100021.81;5285238;33;34361;-85
2022/09/30 13:20:55;;;;;;;;;;;;;;;31.13;33.70;100005.78;5273784;33;33828;-74
2022/09/30 13:23:59;;;;;;;;;;;;;;;31.68;31.46;100003.88;5284918;33;33525;-76
2022/09/30 13:27:07;;;;;;;;;;;;;;;31.53;31.12;100023.06;5276961;33;34390;-76
2022/09/30 13:30:12;;;;;;;;;;;;;;;30.58;31.79;100035.50;5287320;33;33315;-77
2022/09/30 13:33:30;;;;;;;;;;;;;;;24.96;42.61;100045.38;5296384;33;44999;-76
2022/09/30 13:36:50;;;;;;;;;;;;;;;23.96;46.26;100065.50;5282308;33;33846;-75
2022/09/30 13:39:53;;;;;;;;;;;;;;;24.16;45.34;100071.53;5298623;33;33949;-75
2022/09/30 13:42:55;;;;;;;;;;;;;;;22.01;51.87;100082.38;5268669;33;34395;-76
2022/09/30 13:45:57;;;;;;;;;;;;;;;21.73;53.77;100101.94;5275878;33;33769;-75
2022/09/30 13:48:59;;;;;;;;;;;;;;;21.88;53.79;100093.34;5272057;33;34140;-75
2022/09/30 13:52:01;;;;;;;;;;;;;;;20.79;56.22;100094.09;5268980;33;35259;-76
2022/09/30 13:55:23;;;;;;;;;;;;;;;20.39;57.78;100093.97;5284378;33;33247;-85
2022/09/30 13:58:44;;;;;;;;;;;;;;;20.34;59.09;100100.66;5268999;33;33829;-76
2022/09/30 14:01:46;;;;;;;;;;;;;;;20.25;59.18;100102.28;5298193;33;48086;-85
2022/09/30 14:04:51;;;;;;;;;;;;;;;20.39;59.38;100098.47;5290516;33;34709;-76
2022/09/30 14:08:12;;;;;;;;;;;;;;;20.49;58.14;100084.25;5279640;33;34366;-84
2022/09/30 14:11:19;;;;;;;;;;;;;;;21.15;56.07;100081.19;5289053;33;45234;-76
2022/09/30 14:14:28;;;;;;;;;;;;;;;20.57;58.02;100082.75;5271076;33;33679;-76
2022/09/30 14:17:32;;;;;;;;;;;;;;;19.95;59.66;100095.84;5286566;33;34339;-75
2022/09/30 14:20:37;;;;;;;;;;;;;;;20.08;58.76;100074.34;5288929;33;34926;-85
2022/09/30 14:23:39;;;;;;;;;;;;;;;20.00;58.90;100083.00;5290467;33;33649;-86
2022/09/30 14:26:44;;;;;;;;;;;;;;;19.14;60.94;100091.75;5299175;33;33922;-78
2022/09/30 14:29:52;;;;;;;;;;;;;;;19.26;61.61;100092.59;5285480;33;34480;-86
2022/09/30 14:32:55;;;;;;;;;;;;;;;20.65;56.94;100091.78;5277417;33;33247;-85
2022/09/30 14:35:59;;;;;;;;;;;;;;;19.75;59.96;100099.31;5276232;33;34309;-85
2022/09/30 14:39:01;;;;;;;;;;;;;;;18.93;62.86;100101.44;5280726;33;33794;-77
2022/09/30 14:42:03;;;;;;;;;;;;;;;19.82;60.71;100092.50;5281848;33;34412;-75
2022/09/30 14:45:05;;;;;;;;;;;;;;;20.19;59.01;100095.66;5269898;33;34570;-86
2022/09/30 14:48:10;;;;;;;;;;;;;;;20.49;57.63;100094.91;5304896;33;33843;-84
2022/09/30 14:51:13;;;;;;;;;;;;;;;19.96;59.40;100097.53;5282416;33;43986;-86
2022/09/30 14:54:15;;;;;;;;;;;;;;;19.81;59.45;100098.81;5303626;33;34465;-86
2022/09/30 14:57:17;;;;;;;;;;;;;;;20.06;58.52;100094.97;5291251;33;33980;-76
2022/09/30 15:00:20;;;;;;;;;;;;;;;20.60;56.92;100093.12;5289847;33;33909;-85
2022/09/30 15:03:22;;;;;;;;;;;;;;;19.77;59.85;100107.19;5279230;33;34296;-77
2022/09/30 15:06:25;;;;;;;;;;;;;;;19.19;62.09;100108.22;5268295;33;33772;-78
2022/09/30 15:09:29;;;;;;;;;;;;;;;19.89;59.98;100115.03;5278708;33;34463;-77
2022/09/30 15:12:36;;;;;;;;;;;;;;;19.53;60.41;100118.84;5287838;33;33894;-77
2022/09/30 15:15:39;;;;;;;;;;;;;;;19.63;59.34;100130.47;5297466;33;33906;-77
2022/09/30 15:18:43;;;;;;;;;;;;;;;20.29;57.85;100125.09;5279548;33;33990;-76
2022/09/30 15:21:44;;;;;;;;;;;;;;;19.99;57.85;100126.66;5265402;33;33925;-83
2022/09/30 15:24:47;;;;;;;;;;;;;;;20.23;57.49;100130.94;5299456;33;34019;-82
2022/09/30 15:27:49;;;;;;;;;;;;;;;19.54;58.88;100127.69;5290984;33;33640;-77
2022/09/30 15:30:53;;;;;;;;;;;;;;;20.28;56.91;100142.88;5287517;33;33619;-84
2022/09/30 15:34:05;;;;;;;;;;;;;;;20.50;56.72;100138.47;5282642;33;33783;-83
2022/09/30 15:37:12;;;;;;;;;;;;;;;20.44;56.46;100137.12;5300467;33;34389;-85
2022/09/30 15:43:38;;;;;;;;;;;;;;;19.92;58.18;100152.13;5277506;33;34140;-86
2022/09/30 15:46:40;;;;;;;;;;;;;;;19.94;58.31;100155.50;5301372;33;33313;-75
2022/09/30 15:49:46;;;;;;;;;;;;;;;19.73;59.04;100162.59;5272538;33;44433;-83
2022/09/30 15:52:50;;;;;;;;;;;;;;;19.30;60.03;100165.13;5285171;33;34449;-84
2022/09/30 15:55:54;;;;;;;;;;;;;;;19.70;59.51;100162.81;5285952;33;35361;-85
2022/09/30 15:58:57;;;;;;;;;;;;;;;19.60;60.00;100167.22;5260035;33;34592;-77
2022/09/30 16:01:58;;;;;;;;;;;;;;;19.92;58.73;100170.81;5303441;33;32857;-77
2022/09/30 16:05:00;;;;;;;;;;;;;;;20.19;57.98;100169.50;5286878;33;34795;-76
2022/09/30 16:08:06;;;;;;;;;;;;;;;19.09;62.41;100171.19;5293722;33;33795;-86
2022/09/30 16:11:08;;;;;;;;;;;;;;;18.80;63.43;100175.22;5251061;33;33987;-76
2022/09/30 16:14:16;;;;;;;;;;;;;;;19.20;61.67;100187.19;5282505;33;33772;-78